Avallon (89) - D

Date : 19/08/2013
Distance : 2,000 km

Place Nom Licence Catégorie Club Temps min/km CN à J-60 Points Différence Nouveau CN
1 BEAUVISAGE Lauriane 11307 D20 7807IF 0:14:48 7'24 6614 6107 -507 6544
2 BASSET Isia 9932 D20 6911RA 0:15:05 7'32 7183 5992 -1191 7208
3 HUMMEL-AZAIS Margaux 18432 D20 2517FC 0:16:02 8'01 5896 5637 -259 5904
4 POIROT Delphine 15979 D20 8809LO 0:16:03 8'01 6159 5631 -528 6176
5 GIRARD Lucille 19689 D18 3705CE 0:16:46 8'23 5691 5390 -301 5695
6 LOTERIE Laurine 7045 D20 5907NO 0:16:54 8'27 5880 5348 -532 5812
7 HABERKORN Chloé 10396 D18 2105BO 0:16:55 8'27 6100 5343 -757 6085
8 GERBEAUX Nathanaëlle 18312 D20 7807IF 0:17:22 8'41 5611 5204 -407 5590
9 CLOUARD Lucile 8551 D20 7807IF 0:17:27 8'43 6298 5179 -1119 6309
10 MARCHEGAY Tiphane 13076 D20 1905LI 0:17:51 8'55 4945 5063 +118 4975
11 DUQUENNE Audrey 23885 D18 5907NO 0:17:59 8'59 4720 5026 +306 4808
12 BORNARD Julie 9402 D18 7305RA 0:18:15 9'07 4919 4952 +33 4947
13 ERBLAND Christine 23153 D40 9105IF 0:18:19 9'09 4853 4934 +81 4939
14 STARKE Paula 26505 D18 6913RA 0:18:27 9'13 4562 4899 +337 4946
15 DEFIX Anne-Claire 21435 D20 4203RA 0:19:09 9'34 4538 4720 +182 4617
16 BESTEL Sandra 10758 D18 9105IF 0:19:15 9'37 4015 4695 +680 4129
17 CONIEL Lise 14886 D20 5604BR 0:19:20 9'40 5039 4675 -364 5129
18 DEVRIEUX Naïs 7672 D20 4203RA 0:19:22 9'41 5750 4667 -1083 5750
19 OLIVIER Sandra 2179 D45 7716IF 0:19:25 9'42 5505 4655 -850 5530
20 ALAFORT Lucie 22475 D18 5116CA 0:19:38 9'49 4260 4603 +343 4420
21 LUTHRINGER Coline 10091 D18 8809LO 0:19:39 9'49 4760 4599 -161 4734
22 VERCAUTEREN M-Claude 16229 D40 6008PI 0:19:54 9'57 4417 4542 +125 4484
23 VERDIN Alix 15276 D18 7109BO 0:20:01 10'00 3781 4515 +734 3963
24 LE CAM Muriel 19391 D40 3502BR 0:20:05 10'02 4277 4500 +223 4284
25 GONET Janick 21046 D40 2607RA 0:20:14 10'07 3994 4467 +473 4080
26 CHARDOT Marion 22315 D18 7807IF 0:20:19 10'09 4260 4449 +189 4568
27 PORTE Christine 2733 D45 2105BO 0:20:23 10'11 4459 4434 -25 4832
28 PERRIN Odile 2731 D40 4201RA 0:20:28 10'14 5515 4416 -1099 5665
29 GUINOT Marion 15018 D18 2108BO 0:20:49 10'24 4147 4342 +195 4173
30 RIVOLLIER Isaline 22451 D18 4201RA 0:20:52 10'26 4200 4331 +131 4242
31 LE CAM Miti 27711 D18 3502BR 0:20:55 10'27 2861 4321 +1460 4126
32 DUDOIGNON Jocelyne 17952 D45 2604RA 0:21:04 10'32 3983 4290 +307 3736
33 HABERKORN Valérie 2717 D40 2105BO 0:21:13 10'36 4909 4260 -649 5075
34 GUILMAIN Melanie 20572 D18 6208NO 0:21:20 10'40 4049 4237 +188 4058
35 MANIERE Marie 17067 D20 6008PI 0:21:28 10'44 3181 4210 +1029 3860
36 VERNOTTE Louise 23552 D18 1905LI 0:21:38 10'49 3839 4178 +339 3997
37 VERNOTTE Justine 23633 D18 1905LI 0:21:55 10'57 3465 4124 +659 3538
38 LEVREUX Nathalie 14946 D45 7807IF 0:22:21 11'10 3751 4044 +293 3847
39 FIGUIERE Valérie 274 D45 7109BO 0:22:26 11'13 4065 4029 -36 4184
40 BERRARD Marianne 18130 D45 2607RA 0:23:09 11'34 3724 3904 +180 3797
41 BESTEL Florence 17309 D40 9105IF 0:23:21 11'40 4044 3871 -173 4033
42 RENUCCI Maroussia 16297 D40 4504CE 0:23:27 11'43 4496 3854 -642 4512
43 ROCHE Sandrine 10684 D40 6911RA 0:23:27 11'43 3764 3854 +90 3806
44 BELDJILALI Stephanie 14568 D40 9801OM 0:23:36 11'48 3830 3374
45 DELENNE A-Francoise 11495 D45 1307PR 0:23:41 11'50 3854 3816 -38 3850
46 ELTZER Marie 26848 D18 6804AL 0:23:49 11'54 2920 3795 +875 3550
47 FLORENT Roxane 26927 D18 5907NO 0:23:58 11'59 4011 3771 -240 3974
48 CRETE Angélique 18827 D40 6008PI 0:23:59 11'59 4389 3768 -621 4389
49 LE VERGE Helene 15367 D40 2904BR 0:24:31 12'15 2901 3686 +785 3213
50 GONNEAUD Perrine 11385 D18 7109BO 0:24:42 12'21 3537 3659 +122 3665
51 PASSELERGUE Marianne 19215 D40 7808IF 0:24:50 12'25 4025 3639 -386 3989
52 CHABANCE Anne 20752 D45 4201RA 0:24:54 12'27 3233 3630 +397 3444
53 RAUTURIER Nathalie 3200 D45 7807IF 0:24:56 12'28 3643 3625 -18 3668
54 HUCHON Patricia 25179 D45 2109BO 0:25:10 12'35 3507 3591 +84 3586
55 HERVE-JOUSSE Odile 13784 D45 9109IF 0:25:15 12'37 3403 3579 +176 3398
56 LAVALLEE Nathalie 26461 D40 6008PI 0:25:37 12'48 3072 3528 +456 3135
57 CROENNE Marielle 27454 D40 0308AU 0:25:43 12'51 2662 3514 +852 3282
58 ANGLADE Françoise 22255 D45 5604BR 0:25:49 12'54 3454 3501 +47 3523
59 PIERRAT Emeline 20232 D18 8809LO 0:25:58 12'59 3215 3481 +266 3548
60 GIRARD Melissa 28118 D18 5907NO 0:26:21 13'10 3647 3430 -217 3829
61 CONIEL Anne 14884 D40 5604BR 0:26:28 13'14 3522 3415 -107 3617
62 CHAILLAN Caroline 20381 D45 0404PR 0:26:49 13'24 4143 3370 -773 4143
63 ELIAS Laurence 19335 D45 1307PR 0:26:58 13'29 2997 3352 +355 3138
64 RAVENEL Veronique 10902 D45 6804AL 0:27:01 13'30 3330 3345 +15 3257
65 CHAUVINEAU Christine 15228 D45 7807IF 0:27:28 13'44 2831 3291 +460 2863
66 REYDANT Juliette 19882 D18 2704NM 0:27:29 13'44 1978 3289 +1311 2257
67 DEMESSANCE Annaik 25595 D18 6008PI 0:27:33 13'46 3824 3281 -543 3750
68 PERDRIZET Anne 2661 D40 2101BO 0:27:34 13'47 3085 3279 +194 3338
69 VAN TORHOUDT Adèle 26885 D18 1403NM 0:27:40 13'50 0 3267 2545
70 GONNEAUD Agnès 11384 D40 7109BO 0:28:06 14'03 0 3216 2637
71 WU Christine 22945 D40 7808IF 0:28:21 14'10 2728 3188 +460 2772
72 COLIN Marie-Noël 22020 D45 1311PR 0:28:23 14'11 2659 3184 +525 2923
73 LOGE Sophie 12767 D45 5703LO 0:28:52 14'26 2831 3131 +300 3030
74 INDEAUX Catherine 10394 D40 6913RA 0:29:00 14'30 2676 3117 +441 2721
75 VALETTE Isabelle 2270 D40 6913RA 0:29:40 14'50 2876 3047 +171 2986
76 MERIGUET Valérie 16687 D45 7807IF 0:32:44 16'22 3059 2761 -298 3050
77 BODY Agnes 10182 D45 7305RA 0:35:09 17'34 2753 2571 -182 2692
78 BULLIER Alisson 23427 D18 0207PI 0:35:23 17'41 2945 2554 -391 2977
79 ELIAS Maria 24546 D40 3319AQ 0:36:19 18'09 2536 2489 -47 2542
80 SERRE Francine 3429 D45 5907NO 0:37:37 18'48 2374 2403 +29 2385
81 PINEAU Noelle 4678 D40 5702LO 0:42:28 21'14 1827 2128 +301 2231
DEBARBIEUX Julie 24574 D18 2108BO pm None 3561 0 3603
CAVELIUS Sandrine 6495 D45 6906RA pm None 0 0 2317
FRANET Claire 21440 D45 2105BO pm None 2897 0 3606
BIHEL Julia 14738 D20 4203RA pm None 3178 0 3415
TAUZIN Laurence 18370 D40 8607PC pm None 2504 0 2432
GUELENNOC Christine 17592 D45 2906BR pm None 2707 0 2766
nc SCHIFANO Delphine 22224 D35 5402LO 0:52:07 26'03